This is the latest recevied weather packets stored in our database for station/object KC9DRE. If no packets are shown the sender has not sent any weather packets the latest 10 day(s).
| Time | Temp. | Humidity | Pressure | Rain* | Wind** | Luminosity | Snow |
|---|---|---|---|---|---|---|---|
| 1788592400 | 22.78° C | 98% | 1013.8 hPa | 0 mm | - | 0 W/m² | - |
| 1788592100 | 22.78° C | 98% | 1014.1 hPa | 0 mm | - | 0 W/m² | - |
| 1788591796 | 22.78° C | 98% | 1014 hPa | 0 mm | - | 0 W/m² | - |
| 1788591495 | 22.78° C | 98% | 1014.1 hPa | 0 mm | - | 0 W/m² | - |
| 1788591194 | 22.78° C | 98% | 1014.1 hPa | 0 mm | - | 0 W/m² | - |
| 1788590889 | 22.78° C | 98% | 1014 hPa | 0 mm | - | 0 W/m² | - |
| 1788590585 | 22.78° C | 98% | 1014.2 hPa | 0 mm | - | 0 W/m² | - |
| 1788590283 | 22.78° C | 98% | 1014 hPa | 0 mm | - | 0 W/m² | - |
| 1788589980 | 22.78° C | 98% | 1014.3 hPa | 0 mm | - | 0 W/m² | - |
| 1788589675 | 22.78° C | 98% | 1014.3 hPa | 0 mm | - | 0 W/m² | - |
| 1788589375 | 22.78° C | 98% | 1014.5 hPa | 0 mm | - | 0 W/m² | - |
| 1788589070 | 22.22° C | 98% | 1014.4 hPa | 0 mm | - | 0 W/m² | - |
| 1788588770 | 22.22° C | 98% | 1014.6 hPa | 0 mm | - | 0 W/m² | - |
| 1788588464 | 22.22° C | 98% | 1014.6 hPa | 0 mm | - | 0 W/m² | - |
| 1788587860 | 22.22° C | 97% | 1014.6 hPa | 0 mm | - | 0 W/m² | - |
| 1788587250 | 22.22° C | 97% | 1014.7 hPa | 0 mm | - | 0 W/m² | - |
| 1788586947 | 22.22° C | 97% | 1014.7 hPa | 0 mm | - | 0 W/m² | - |
| 1788586041 | 22.22° C | 97% | 1014.6 hPa | 0 mm | - | 0 W/m² | - |
| 1788585736 | 22.22° C | 97% | 1014.9 hPa | 0 mm | - | 0 W/m² | - |
| 1788563881 | 31.11° C | 70% | 1014 hPa | 0 mm | - | 38 W/m² | - |
| 1788562063 | 35° C | 60% | 1014.4 hPa | 0 mm | - | 57 W/m² | - |
| 1788560849 | 36.11° C | 56% | 1014.6 hPa | 0 mm | - | 140 W/m² | - |
| 1788560243 | 36.67° C | 47% | 1014.6 hPa | 0 mm | - | 166 W/m² | - |
| 1788559939 | 37.22° C | 51% | 1014.7 hPa | 0 mm | - | 180 W/m² | - |
| 1788557515 | 37.22° C | 48% | 1014.9 hPa | 0 mm | - | 303 W/m² | - |
* Rain latest hour (hover to see other rain measurements)
** Current wind speed in m/s (hover to see current wind gust speed)